createdAt,value
2022-10-14T00:01:31.371Z,12.97
2022-10-14T00:03:58.527Z,12.63
2022-10-14T00:06:28.802Z,15.35
2022-10-14T00:08:56.423Z,13.40
2022-10-14T00:11:26.963Z,13.57
2022-10-14T00:14:10.902Z,13.80
2022-10-14T00:16:40.046Z,13.93
2022-10-14T00:19:07.261Z,12.77
2022-10-14T00:21:35.157Z,12.93
2022-10-14T00:24:01.846Z,14.80
2022-10-14T00:26:31.605Z,13.20
2022-10-14T00:28:59.741Z,13.83
2022-10-14T00:31:27.882Z,15.47
2022-10-14T00:33:54.938Z,14.93
2022-10-14T00:36:24.181Z,14.37
2022-10-14T00:38:52.246Z,14.83
2022-10-14T00:41:22.741Z,14.73
2022-10-14T00:44:10.492Z,14.30
2022-10-14T00:46:45.971Z,13.83
2022-10-14T00:49:32.491Z,14.37
2022-10-14T00:52:07.730Z,14.47
2022-10-14T00:54:38.874Z,12.87
2022-10-14T00:57:06.379Z,13.97
2022-10-14T00:59:34.202Z,13.83
2022-10-14T01:02:00.846Z,14.07
2022-10-14T01:04:27.471Z,13.73
2022-10-14T01:07:11.796Z,12.67
2022-10-14T01:09:59.089Z,13.13
2022-10-14T01:13:03.416Z,13.10
2022-10-14T01:15:46.471Z,13.70
2022-10-14T01:18:56.779Z,13.43
2022-10-14T01:21:39.010Z,16.65
2022-10-14T01:24:39.546Z,14.17
2022-10-14T01:27:17.824Z,12.30
2022-10-14T01:29:53.574Z,12.27
2022-10-14T01:32:45.580Z,12.53
2022-10-14T01:35:29.754Z,11.77
2022-10-14T01:38:03.758Z,11.37
2022-10-14T01:40:42.722Z,11.43
2022-10-14T01:43:13.224Z,12.00
2022-10-14T01:45:43.384Z,11.40
2022-10-14T01:48:13.007Z,10.97
2022-10-14T01:50:43.500Z,11.03
2022-10-14T01:53:23.390Z,11.10
2022-10-14T01:55:53.803Z,10.63
2022-10-14T01:58:24.437Z,11.27
2022-10-14T02:00:51.011Z,10.57
2022-10-14T02:03:17.919Z,9.93
2022-10-14T02:05:59.819Z,10.37
2022-10-14T02:08:55.030Z,10.47
2022-10-14T02:11:22.995Z,10.63
2022-10-14T02:14:14.797Z,10.10
2022-10-14T02:16:48.060Z,10.07
2022-10-14T02:19:28.005Z,8.70
2022-10-14T02:22:24.022Z,9.20
2022-10-14T02:24:57.312Z,10.70
2022-10-14T02:27:28.143Z,10.67
2022-10-14T02:29:56.231Z,11.47
2022-10-14T02:32:25.934Z,9.97
2022-10-14T02:34:55.220Z,12.77
2022-10-14T02:37:23.636Z,10.80
2022-10-14T02:39:58.943Z,10.33
2022-10-14T02:42:27.415Z,9.93
2022-10-14T02:45:01.109Z,9.73
2022-10-14T02:47:28.115Z,10.17
2022-10-14T02:49:54.956Z,11.60
2022-10-14T02:52:21.815Z,12.30
2022-10-14T02:54:48.560Z,12.53
2022-10-14T02:57:15.224Z,12.43
2022-10-14T02:59:41.756Z,11.23
2022-10-14T03:02:08.740Z,11.53
2022-10-14T03:04:35.683Z,11.03
2022-10-14T03:07:02.538Z,10.53
2022-10-14T03:09:30.031Z,11.23
2022-10-14T03:11:56.576Z,10.57
2022-10-14T03:14:23.178Z,13.50
2022-10-14T03:16:49.783Z,11.87
2022-10-14T03:19:16.418Z,11.20
2022-10-14T03:21:43.084Z,11.90
2022-10-14T03:24:09.831Z,12.03
2022-10-14T03:26:36.534Z,11.97
2022-10-14T03:29:03.106Z,11.37
2022-10-14T03:31:29.658Z,13.20
2022-10-14T03:33:56.207Z,12.60
2022-10-14T03:36:22.750Z,11.23
2022-10-14T03:38:49.282Z,11.87
2022-10-14T03:41:15.810Z,12.57
2022-10-14T03:43:42.353Z,12.27
2022-10-14T03:46:08.961Z,11.67
2022-10-14T03:48:35.504Z,12.00
2022-10-14T03:51:02.147Z,10.97
2022-10-14T03:53:28.745Z,11.73
2022-10-14T03:55:55.279Z,11.30
2022-10-14T03:58:21.867Z,12.10
2022-10-14T04:00:48.413Z,11.23
2022-10-14T04:03:15.103Z,11.83
2022-10-14T04:05:41.798Z,11.43
2022-10-14T04:08:08.469Z,10.23
2022-10-14T04:10:35.440Z,10.60
2022-10-14T04:13:02.091Z,10.90
2022-10-14T04:15:28.757Z,10.40
2022-10-14T04:17:56.111Z,11.60
2022-10-14T04:20:23.697Z,12.47
2022-10-14T04:22:50.235Z,12.37
2022-10-14T04:25:16.880Z,12.13
2022-10-14T04:27:43.455Z,13.32
2022-10-14T04:30:11.027Z,13.67
2022-10-14T04:32:37.584Z,13.70
2022-10-14T04:35:05.289Z,15.50
2022-10-14T04:37:31.966Z,15.43
2022-10-14T04:39:58.502Z,15.23
2022-10-14T04:42:25.197Z,16.87
2022-10-14T04:44:52.406Z,16.10
2022-10-14T04:47:18.955Z,16.30
2022-10-14T04:49:45.480Z,17.77
2022-10-14T04:52:12.216Z,17.53
2022-10-14T04:54:38.848Z,18.43
2022-10-14T04:57:05.416Z,18.40
2022-10-14T04:59:31.963Z,19.00
2022-10-14T05:01:59.768Z,17.83
2022-10-14T05:04:26.426Z,18.73
2022-10-14T05:06:53.445Z,19.20
2022-10-14T05:09:20.018Z,19.17
2022-10-14T05:11:47.105Z,18.53
2022-10-14T05:14:13.644Z,18.00
2022-10-14T05:16:40.254Z,19.60
2022-10-14T05:19:06.804Z,19.20
2022-10-14T05:21:33.380Z,17.77
2022-10-14T05:23:59.954Z,19.80
2022-10-14T05:26:26.590Z,19.27
2022-10-14T05:28:53.227Z,20.83
2022-10-14T05:31:19.801Z,20.60
2022-10-14T05:33:46.371Z,21.77
2022-10-14T05:36:12.906Z,19.07
2022-10-14T05:38:39.529Z,19.63
2022-10-14T05:41:06.136Z,18.77
2022-10-14T05:43:33.144Z,19.00
2022-10-14T05:46:00.270Z,17.63
2022-10-14T05:48:26.952Z,17.67
2022-10-14T05:50:53.557Z,18.40
2022-10-14T05:53:20.176Z,17.93
2022-10-14T05:55:46.796Z,17.97
2022-10-14T05:58:13.342Z,17.53
2022-10-14T06:00:40.057Z,16.63
2022-10-14T06:03:06.716Z,17.17
2022-10-14T06:05:36.504Z,15.50
2022-10-14T06:08:03.251Z,17.23
2022-10-14T06:10:29.837Z,15.97
2022-10-14T06:12:57.127Z,15.47
2022-10-14T06:15:23.684Z,15.27
2022-10-14T06:18:11.214Z,17.17
2022-10-14T06:20:37.831Z,14.77
2022-10-14T06:23:04.410Z,14.47
2022-10-14T06:25:31.737Z,14.57
2022-10-14T06:28:05.581Z,14.27
2022-10-14T06:30:33.044Z,13.90
2022-10-14T06:32:59.590Z,13.77
2022-10-14T06:35:26.141Z,13.23
2022-10-14T06:37:52.791Z,13.03
2022-10-14T06:40:19.584Z,12.60
2022-10-14T06:42:46.361Z,12.13
2022-10-14T06:45:13.064Z,12.37
2022-10-14T06:47:39.621Z,11.73
2022-10-14T06:50:06.744Z,12.53
2022-10-14T06:52:33.340Z,11.83
2022-10-14T06:54:59.999Z,12.13
2022-10-14T06:57:26.580Z,12.57
2022-10-14T06:59:53.107Z,11.73
2022-10-14T07:02:19.929Z,11.00
2022-10-14T07:04:46.732Z,10.80
2022-10-14T07:07:13.293Z,10.83
2022-10-14T07:09:40.455Z,11.40
2022-10-14T07:12:07.006Z,11.20
2022-10-14T07:14:33.547Z,10.80
2022-10-14T07:17:01.144Z,10.63
2022-10-14T07:19:27.689Z,10.80
2022-10-14T07:21:54.240Z,11.57
2022-10-14T07:24:20.779Z,10.73
2022-10-14T07:26:47.353Z,10.70
2022-10-14T07:29:13.914Z,10.83
2022-10-14T07:31:40.460Z,11.17
2022-10-14T07:34:07.011Z,10.60
2022-10-14T07:36:33.697Z,11.03
2022-10-14T07:39:01.007Z,10.43
2022-10-14T07:41:27.763Z,10.33
2022-10-14T07:44:01.790Z,10.77
2022-10-14T07:46:32.081Z,10.50
2022-10-14T07:49:02.034Z,9.67
2022-10-14T07:51:28.876Z,10.10
2022-10-14T07:53:58.025Z,10.13
2022-10-14T07:56:25.150Z,10.70
2022-10-14T07:58:52.446Z,10.50
2022-10-14T08:01:19.623Z,10.10
2022-10-14T08:03:48.109Z,10.60
2022-10-14T08:06:14.940Z,10.23
2022-10-14T08:08:43.335Z,10.60
2022-10-14T08:11:22.713Z,10.55
2022-10-14T08:13:50.161Z,9.80
2022-10-14T08:16:25.587Z,10.63
2022-10-14T08:18:52.866Z,9.47
2022-10-14T08:21:20.978Z,9.97
2022-10-14T08:23:47.937Z,10.20
2022-10-14T08:26:22.793Z,9.57
2022-10-14T08:28:50.761Z,9.67
2022-10-14T08:31:17.548Z,10.50
2022-10-14T08:33:44.332Z,10.97
2022-10-14T08:36:11.067Z,10.60
2022-10-14T08:38:37.612Z,10.07
2022-10-14T08:41:13.012Z,9.07
2022-10-14T08:43:48.589Z,9.63
2022-10-14T08:46:38.824Z,8.10
2022-10-14T08:49:43.924Z,8.10
2022-10-14T08:52:37.269Z,6.63
2022-10-14T08:55:10.603Z,6.13
2022-10-14T08:57:41.715Z,6.53
2022-10-14T09:00:11.206Z,6.33
2022-10-14T09:02:45.861Z,5.73
2022-10-14T09:05:16.985Z,6.63
2022-10-14T09:07:44.661Z,5.80
2022-10-14T09:10:38.022Z,5.67
2022-10-14T09:13:31.468Z,5.63
2022-10-14T09:16:01.230Z,6.10
2022-10-14T09:18:31.370Z,5.60
2022-10-14T09:20:59.052Z,5.77
2022-10-14T09:23:27.966Z,5.17
2022-10-14T09:25:56.843Z,5.75
2022-10-14T09:28:44.388Z,5.50
2022-10-14T09:31:12.730Z,5.23
2022-10-14T09:33:42.491Z,4.57
2022-10-14T09:36:16.806Z,4.80
2022-10-14T09:38:44.429Z,4.63
2022-10-14T09:41:13.097Z,5.17
2022-10-14T09:44:00.034Z,5.17
2022-10-14T09:46:27.071Z,4.80
2022-10-14T09:48:54.962Z,4.60
2022-10-14T09:51:28.354Z,4.80
2022-10-14T09:53:56.405Z,4.77
2022-10-14T09:56:31.024Z,4.97
2022-10-14T09:59:01.061Z,5.30
2022-10-14T10:01:29.171Z,5.18
2022-10-14T10:03:56.848Z,4.73
2022-10-14T10:06:26.676Z,3.93
2022-10-14T10:08:53.643Z,4.50
2022-10-14T10:11:31.143Z,4.03
2022-10-14T10:13:58.179Z,4.43
2022-10-14T10:16:27.084Z,4.27
2022-10-14T10:18:55.915Z,4.97
2022-10-14T10:21:27.299Z,4.00
2022-10-14T10:23:57.330Z,3.97
2022-10-14T10:26:26.795Z,4.57
2022-10-14T10:28:54.714Z,3.87
2022-10-14T10:31:32.330Z,3.90
2022-10-14T10:34:11.992Z,3.53
2022-10-14T10:36:43.259Z,4.00
2022-10-14T10:39:13.347Z,3.70
2022-10-14T10:41:43.399Z,4.45
2022-10-14T10:44:31.883Z,3.43
2022-10-14T10:47:11.653Z,3.90
2022-10-14T10:49:38.596Z,4.50
2022-10-14T10:52:09.020Z,4.00
2022-10-14T10:54:58.935Z,3.67
2022-10-14T10:57:45.918Z,4.00
2022-10-14T11:00:20.701Z,3.80
2022-10-14T11:02:54.922Z,4.03
2022-10-14T11:05:31.047Z,4.30
2022-10-14T11:08:18.754Z,3.93
2022-10-14T11:11:07.279Z,3.90
2022-10-14T11:13:54.367Z,4.43
2022-10-14T11:16:26.333Z,4.13
2022-10-14T11:19:17.217Z,4.07
2022-10-14T11:21:49.489Z,4.17
2022-10-14T11:24:34.885Z,4.30
2022-10-14T11:27:14.134Z,4.60
2022-10-14T11:29:47.379Z,4.80
2022-10-14T11:32:20.356Z,5.27
2022-10-14T11:35:05.960Z,4.17
2022-10-14T11:37:56.340Z,4.03
2022-10-14T11:40:26.258Z,4.20
2022-10-14T11:42:58.212Z,4.00
2022-10-14T11:45:25.506Z,4.53
2022-10-14T11:47:53.660Z,3.83
2022-10-14T11:50:25.810Z,3.80
2022-10-14T11:53:17.826Z,4.43
2022-10-14T11:55:48.046Z,4.45
2022-10-14T11:58:23.603Z,4.40
2022-10-14T12:00:53.815Z,3.70
2022-10-14T12:03:39.811Z,4.40
2022-10-14T12:06:16.047Z,3.97
2022-10-14T12:09:00.390Z,3.73
2022-10-14T12:11:33.674Z,3.30
2022-10-14T12:14:04.267Z,3.63
2022-10-14T12:16:32.227Z,4.10
2022-10-14T12:18:59.290Z,3.70
2022-10-14T12:21:49.689Z,3.40
2022-10-14T12:24:20.054Z,3.60
2022-10-14T12:26:57.184Z,4.13
2022-10-14T12:29:25.629Z,3.10
2022-10-14T12:32:04.614Z,3.97
2022-10-14T12:34:41.375Z,2.97
2022-10-14T12:37:31.348Z,3.10
2022-10-14T12:40:07.717Z,3.13
2022-10-14T12:42:36.117Z,2.87
2022-10-14T12:45:14.270Z,3.00
2022-10-14T12:47:42.400Z,3.00
2022-10-14T12:50:15.578Z,2.90
2022-10-14T12:52:45.750Z,3.40
2022-10-14T12:55:17.221Z,3.63
2022-10-14T12:57:44.210Z,2.70
2022-10-14T13:00:23.679Z,2.77
2022-10-14T13:02:52.260Z,2.83
2022-10-14T13:05:39.491Z,2.83
2022-10-14T13:08:25.532Z,2.80
2022-10-14T13:10:55.527Z,2.70
2022-10-14T13:13:41.853Z,2.50
2022-10-14T13:16:09.679Z,2.03
2022-10-14T13:18:49.035Z,2.17
2022-10-14T13:21:34.607Z,1.93
2022-10-14T13:24:03.613Z,2.60
2022-10-14T13:26:51.687Z,2.10
2022-10-14T13:29:21.745Z,2.10
2022-10-14T13:32:07.586Z,1.90
2022-10-14T13:34:53.360Z,1.60
2022-10-14T13:37:20.367Z,1.83
2022-10-14T13:39:47.370Z,1.90
2022-10-14T13:42:17.966Z,1.77
2022-10-14T13:44:45.030Z,1.70
2022-10-14T13:47:13.877Z,1.80
2022-10-14T13:49:41.036Z,1.47
2022-10-14T13:52:10.587Z,1.80
2022-10-14T13:54:37.648Z,1.80
2022-10-14T13:57:42.572Z,1.80
2022-10-14T14:02:48.091Z,1.80
2022-10-14T14:05:17.946Z,1.70
2022-10-14T14:10:32.411Z,1.70
2022-10-14T14:13:02.901Z,1.60
2022-10-14T14:15:30.103Z,1.63
2022-10-14T14:17:57.110Z,1.70
2022-10-14T14:20:26.246Z,1.90
2022-10-14T14:22:53.255Z,1.90
2022-10-14T14:25:40.258Z,2.00
2022-10-14T14:28:07.298Z,1.70
2022-10-14T14:30:35.683Z,1.80
2022-10-14T14:33:04.249Z,1.60
2022-10-14T14:35:31.246Z,2.00
2022-10-14T14:37:58.582Z,1.87
2022-10-14T14:40:27.284Z,1.90
2022-10-14T14:42:55.672Z,1.80
2022-10-14T14:45:25.393Z,1.80
2022-10-14T14:47:53.943Z,2.20
2022-10-14T14:50:30.433Z,1.80
2022-10-14T14:53:01.540Z,2.10
2022-10-14T14:55:46.724Z,2.50
2022-10-14T14:58:21.996Z,1.97
2022-10-14T15:00:50.264Z,2.23
2022-10-14T15:03:17.321Z,2.37
2022-10-14T15:05:51.714Z,2.30
2022-10-14T15:08:23.889Z,2.20
2022-10-14T15:10:51.277Z,2.27
2022-10-14T15:13:29.368Z,2.63
2022-10-14T15:15:56.562Z,2.13
2022-10-14T15:18:26.090Z,2.30
2022-10-14T15:20:53.192Z,2.13
2022-10-14T15:23:38.426Z,2.40
2022-10-14T15:26:06.764Z,2.33
2022-10-14T15:28:33.849Z,2.20
2022-10-14T15:31:04.706Z,2.10
2022-10-14T15:33:32.854Z,2.90
2022-10-14T15:36:01.712Z,2.73
2022-10-14T15:40:56.523Z,2.40
2022-10-14T15:43:27.610Z,1.80
2022-10-14T15:46:27.843Z,1.73
2022-10-14T15:48:55.346Z,1.80
2022-10-14T15:51:23.484Z,1.77
2022-10-14T15:53:51.695Z,2.40
2022-10-14T15:56:20.769Z,2.20
2022-10-14T15:58:47.732Z,2.43
2022-10-14T16:01:20.342Z,2.00
2022-10-14T16:03:48.028Z,1.80
2022-10-14T16:06:16.815Z,2.03
2022-10-14T16:08:43.927Z,2.50
2022-10-14T16:11:18.751Z,1.70
2022-10-14T16:13:45.702Z,1.90
2022-10-14T16:16:13.206Z,2.23
2022-10-14T16:18:40.238Z,2.07
2022-10-14T16:21:07.267Z,2.30
2022-10-14T16:23:34.375Z,3.87
2022-10-14T16:26:01.945Z,3.40
2022-10-14T16:28:28.943Z,4.77
2022-10-14T16:30:56.143Z,4.87
2022-10-14T16:33:23.243Z,3.30
2022-10-14T16:35:57.140Z,2.40
2022-10-14T16:38:24.563Z,2.27
2022-10-14T16:40:58.574Z,5.47
2022-10-14T16:43:25.800Z,6.67
2022-10-14T16:45:52.952Z,4.43
2022-10-14T16:48:19.960Z,2.90
2022-10-14T16:50:50.610Z,2.80
2022-10-14T16:53:36.413Z,3.13
2022-10-14T16:56:03.919Z,2.60
2022-10-14T16:58:30.941Z,2.27
2022-10-14T17:00:57.925Z,2.30
2022-10-14T17:03:24.922Z,2.60
2022-10-14T17:05:58.576Z,2.23
2022-10-14T17:08:25.526Z,2.40
2022-10-14T17:10:57.090Z,2.10
2022-10-14T17:13:24.135Z,2.20
2022-10-14T17:15:52.164Z,2.13
2022-10-14T17:18:23.220Z,2.27
2022-10-14T17:20:59.809Z,2.43
2022-10-14T17:23:28.798Z,2.40
2022-10-14T17:25:55.799Z,2.50
2022-10-14T17:28:22.823Z,2.90
2022-10-14T17:30:49.854Z,2.50
2022-10-14T17:33:17.724Z,2.43
2022-10-14T17:35:44.762Z,2.00
2022-10-14T17:38:11.772Z,2.43
2022-10-14T17:40:38.802Z,2.50
2022-10-14T17:43:05.832Z,2.70
2022-10-14T17:45:32.886Z,4.50
2022-10-14T17:47:59.916Z,6.67
2022-10-14T17:50:27.862Z,6.33
2022-10-14T17:52:58.681Z,3.73
2022-10-14T17:55:25.706Z,2.70
2022-10-14T17:57:52.740Z,2.33
2022-10-14T18:00:19.764Z,2.53
2022-10-14T18:02:47.004Z,2.47
2022-10-14T18:05:14.078Z,2.30
2022-10-14T18:07:41.048Z,2.47
2022-10-14T18:10:09.416Z,2.70
2022-10-14T18:12:36.386Z,2.57
2022-10-14T18:15:03.524Z,2.37
2022-10-14T18:17:30.576Z,2.43
2022-10-14T18:19:57.575Z,2.10
2022-10-14T18:22:24.603Z,2.47
2022-10-14T18:24:51.567Z,2.10
2022-10-14T18:27:18.722Z,2.17
2022-10-14T18:29:45.679Z,2.07
2022-10-14T18:32:24.981Z,2.40
2022-10-14T18:34:52.209Z,2.40
2022-10-14T18:37:19.181Z,2.20
2022-10-14T18:39:46.151Z,2.30
2022-10-14T18:42:15.995Z,2.40
2022-10-14T18:44:45.502Z,2.60
2022-10-14T18:47:12.463Z,2.43
2022-10-14T18:49:40.730Z,2.50
2022-10-14T18:52:08.562Z,2.60
2022-10-14T18:54:35.755Z,2.87
2022-10-14T18:57:03.048Z,2.80
2022-10-14T18:59:30.229Z,2.80
2022-10-14T19:01:57.370Z,2.80
2022-10-14T19:04:26.899Z,2.80
2022-10-14T19:06:54.049Z,2.67
2022-10-14T19:09:24.371Z,2.67
2022-10-14T19:11:52.186Z,3.10
2022-10-14T19:14:19.243Z,3.00
2022-10-14T19:16:47.528Z,3.20
2022-10-14T19:19:16.714Z,3.77
2022-10-14T19:21:44.585Z,2.70
2022-10-14T19:24:12.538Z,3.40
2022-10-14T19:26:41.115Z,3.30
2022-10-14T19:29:11.617Z,3.10
2022-10-14T19:31:39.639Z,2.90
2022-10-14T19:34:07.302Z,3.27
2022-10-14T19:36:35.850Z,3.33
2022-10-14T19:39:02.910Z,3.03
2022-10-14T19:41:31.217Z,3.00
2022-10-14T19:43:59.005Z,3.20
2022-10-14T19:46:27.636Z,2.83
2022-10-14T19:49:10.352Z,3.20
2022-10-14T19:51:37.365Z,2.80
2022-10-14T19:54:04.432Z,2.90
2022-10-14T19:56:31.825Z,2.70
2022-10-14T19:58:59.439Z,2.83
2022-10-14T20:01:31.558Z,2.60
2022-10-14T20:04:00.378Z,3.07
2022-10-14T20:06:29.176Z,2.70
2022-10-14T20:08:56.173Z,2.60
2022-10-14T20:11:24.748Z,2.97
2022-10-14T20:13:51.836Z,2.90
2022-10-14T20:16:18.859Z,2.73
2022-10-14T20:18:45.951Z,2.87
2022-10-14T20:21:14.328Z,2.80
2022-10-14T20:23:41.428Z,2.67
2022-10-14T20:26:13.486Z,3.00
2022-10-14T20:28:40.601Z,3.33
2022-10-14T20:31:12.561Z,2.63
2022-10-14T20:33:39.690Z,2.63
2022-10-14T20:36:26.979Z,2.70
2022-10-14T20:38:54.022Z,3.00
2022-10-14T20:41:20.993Z,3.10
2022-10-14T20:43:47.994Z,2.80
2022-10-14T20:46:15.405Z,2.30
2022-10-14T20:48:42.430Z,2.10
2022-10-14T20:51:17.949Z,2.10
2022-10-14T20:53:45.031Z,2.17
2022-10-14T20:56:12.953Z,2.10
2022-10-14T20:58:39.939Z,2.80
2022-10-14T21:01:14.679Z,3.00
2022-10-14T21:03:42.611Z,2.10
2022-10-14T21:06:10.865Z,2.40
2022-10-14T21:08:37.884Z,2.17
2022-10-14T21:11:09.172Z,2.43
2022-10-14T21:13:40.500Z,2.50
2022-10-14T21:16:19.907Z,2.17
2022-10-14T21:18:55.080Z,2.17
2022-10-14T21:21:25.059Z,2.00
2022-10-14T21:23:52.292Z,2.07
2022-10-14T21:26:19.390Z,2.10
2022-10-14T21:28:46.535Z,2.30
2022-10-14T21:31:17.371Z,2.10
2022-10-14T21:33:46.878Z,2.67
2022-10-14T21:36:14.500Z,2.27
2022-10-14T21:38:42.111Z,2.00
2022-10-14T21:41:09.342Z,2.30
2022-10-14T21:43:37.366Z,2.30
2022-10-14T21:46:05.236Z,2.20
2022-10-14T21:48:32.330Z,2.50
2022-10-14T21:51:11.041Z,2.00
2022-10-14T21:53:38.945Z,2.37
2022-10-14T21:56:06.083Z,2.50
2022-10-14T21:58:33.746Z,2.30
2022-10-14T22:01:05.663Z,1.90
2022-10-14T22:03:32.929Z,2.10
2022-10-14T22:08:33.757Z,2.10
2022-10-14T22:11:00.778Z,2.30
2022-10-14T22:13:28.347Z,2.40
2022-10-14T22:15:55.779Z,2.50
2022-10-14T22:18:22.770Z,2.40
2022-10-14T22:20:50.722Z,2.50
2022-10-14T22:23:17.733Z,2.63
2022-10-14T22:25:44.726Z,2.40
2022-10-14T22:28:11.686Z,2.30
2022-10-14T22:30:38.806Z,2.43
2022-10-14T22:35:33.695Z,2.00
2022-10-14T22:38:00.688Z,2.30
2022-10-14T22:40:27.680Z,2.07
2022-10-14T22:42:55.134Z,1.90
2022-10-14T22:45:22.125Z,2.07
2022-10-14T22:47:49.109Z,1.87
2022-10-14T22:50:16.110Z,1.90
2022-10-14T22:52:43.071Z,1.77
2022-10-14T22:55:10.240Z,2.10
2022-10-14T22:57:37.445Z,2.00
2022-10-14T23:00:05.195Z,1.80
2022-10-14T23:02:32.240Z,1.90
2022-10-14T23:04:59.329Z,2.00
2022-10-14T23:07:28.755Z,2.07
2022-10-14T23:09:55.942Z,1.97
2022-10-14T23:12:23.074Z,2.10
2022-10-14T23:14:51.218Z,2.10
2022-10-14T23:17:18.224Z,2.10
2022-10-14T23:19:46.876Z,1.90
2022-10-14T23:22:13.897Z,1.90
2022-10-14T23:24:40.917Z,1.70
2022-10-14T23:27:07.894Z,1.80
2022-10-14T23:29:34.855Z,2.13
2022-10-14T23:32:02.793Z,1.70
2022-10-14T23:34:30.426Z,1.40
2022-10-14T23:36:57.500Z,1.70
2022-10-14T23:39:24.569Z,2.00
2022-10-14T23:41:51.596Z,1.60
2022-10-14T23:44:18.579Z,1.80
2022-10-14T23:46:46.528Z,1.70
2022-10-14T23:49:25.653Z,1.77
2022-10-14T23:51:53.581Z,1.60
2022-10-14T23:54:20.538Z,1.53
2022-10-14T23:56:47.516Z,1.60
2022-10-14T23:59:14.535Z,1.60
